Архив погоды в Осташкове

Метеограмма Осташков
Пятница, 22 Июня
Время местн. Темп Ветер Видим Явления Облачность нижн/средн/верх Атм. давл. Влжн Точка росы ВНГО R Сост. почвы Tg s
Напр Скр Прв ур.ст ур.м изм
21:00 +15.1° Ю,Ю-З 1 - 10 км - переменная облачность 739 757 +1.2 81% +11.8° более 2.5 км 0.3 - - -
18:00 +14.8° Ю,Ю-З 1 - 10 км - преимущественно облачно 737 756 +1.6 82% +11.7° 600 м - - - -
15:00 +16° З 3 - 4 км дымка {ливневые осадки} облачно 736 755 +1.2 86% +13.7° 600 м - - - -
12:00 +22.6° Ю-З 2 - 10 км - облачно с прояснениями 735 753 +0.4 64% +15.4° более 2.5 км - - - -
09:00 +23.6° Ю 2 - 10 км - переменная облачность 734 752 -1.1 56% +14.3° более 2.5 км 0 Сухая (без трещин) +13° -
06:00 +18.7° Ю,Ю-В 1 - 10 км - преимущественно облачно 735 754 -1.2 67% +12.4° 1 км - - - -
03:00 +17.7° Ю 2 - 10 км - переменная облачность 736 755 -1.3 72% +12.6° 1 км - - - -
00:00 +16° Ю 1 - 10 км - ясно 738 757 -0.5 81% +12.8° более 2.5 км - - - -
Четверг, 21 Июня
Время местн. Темп Ветер Видим Явления Облачность нижн/средн/верх Атм. давл. Влжн Точка росы ВНГО R Сост. почвы Tg s
Напр Скр Прв ур.ст ур.м изм
21:00 +19.5° штиль 0 - 10 км - переменная облачность 738 757 -0.6 70% +13.8° - 0 - - -
18:00 +23.3° Ю 1 - 10 км - переменная облачность 739 757 -0.9 57% +14.4° 1 км - - - -
15:00 +20.1° З 2 - 10 км небо без изменений {ливневые осадки} облачно 740 758 -0.5 68% +13.9° 600 м - - - -
12:00 +15.2° З,Ю-З 3 - 10 км небо без изменений {ливневые осадки} облачно 740 759 0 80% +11.8° 600 м - - - -
09:00 +12.7° Ю,Ю-З 1 - 10 км слабый ливневый дождь облачно 740 759 +0.3 83% +9.9° 600 м 0.3 Влажная (без луж) - -
06:00 +13.8° Ю,Ю-З 1 - 10 км - облачно с прояснениями 740 759 -0.2 66% +7.5° 1 км - - - -
03:00 +12.6° З,Ю-З 2 - 10 км - облачно с прояснениями 740 759 +0.2 68% +6.8° 1 км - - - -
00:00 +11.8° Ю-З 1 10 10 км - переменная облачность 740 759 +0.4 72% +6.9° 1 км - - - -
Среда, 20 Июня
Время местн. Темп Ветер Видим Явления Облачность нижн/средн/верх Атм. давл. Влжн Точка росы ВНГО R Сост. почвы Tg s
Напр Скр Прв ур.ст ур.м изм
21:00 +17.6° З 3 13 10 км - переменная облачность 740 758 +0.3 45% +5.5° 1 км 0 - - -
18:00 +19.8° З 5 13 10 км - облачно с прояснениями 739 758 +0.5 37% +4.7° 1.5 км - - - -
15:00 +19.3° З 5 13 10 км - облачно с прояснениями 739 757 -0.1 40% +5.4° 1.5 км - - - -
12:00 +19.2° З 5 13 10 км - облачно с прояснениями 739 758 -0.2 42% +5.9° 1.5 км - - - -
09:00 +16.4° З,Ю-З 4 13 10 км - переменная облачность 739 758 -0.1 63% +9.4° 1.5 км 0.3 Сухая (без трещин) +11° -
06:00 +12.5° З 3 13 10 км - ясно 739 758 +0.3 82% +9.6° более 2.5 км - - - -
03:00 +11.8° З 3 - 10 км небо без изменений {ливневые осадки} переменная облачность 739 758 +0.7 85% +9.3° - - - - -
00:00 +15° З 5 12 10 км небо без изменений {ливневые осадки} преимущественно облачно 738 757 +0.8 80% +11.5° 1 км - - - -
Вторник, 19 Июня
Время местн. Темп Ветер Видим Явления Облачность нижн/средн/верх Атм. давл. Влжн Точка росы ВНГО R Сост. почвы Tg s
Напр Скр Прв ур.ст ур.м изм
21:00 +19.9° Ю-З 3 - 10 км - облачно с прояснениями 737 756 -1.2 54% +10.4° - 0 - - -
18:00 +22.1° З,Ю-З 3 - 10 км - облачно с прояснениями 739 757 -1.4 51% +11.5° - - - - -